Terminal Aerodrome Forecast
Issued by NWS Bismarck, ND

Home | Current Version | Previous Version | Graphics & Text | Print | Product List | Glossary On
Versions: 1 2 3 4 5 6 7 8 9 10 11 12 13 14 15 16 17 18 19
000
FTUS43 KBIS 150528
TAFBIS
TAF
KBIS 150528Z 1506/1606 32017G26KT P6SM BKN015 OVC025
      TEMPO 1507/1511 SCT025
     FM151100 33011KT P6SM SCT020 BKN035
     FM151700 35007KT P6SM SCT250
     FM152200 VRB03KT P6SM SCT250
     FM160100 10007KT P6SM SCT250=

USA.gov is the U.S. government's official web portal to all federal, state and local government web resources and services.